This is the latest recevied weather packets stored in our database for station/object OE-11053. If no packets are shown the sender has not sent any weather packets the latest 10 day(s).
| Time | Temp. | Humidity | Pressure | Rain* | Wind** | Luminosity | Snow |
|---|---|---|---|---|---|---|---|
| 1787987496 | 18.33° C | 72% | 1017.8 hPa | 0 mm | - | 371 W/m² | - |
| 1787987123 | 17.78° C | 76% | 1018 hPa | 0 mm | - | 345 W/m² | - |
| 1787986523 | 16.67° C | 80% | 1018.1 hPa | 0 mm | - | 320 W/m² | - |
| 1787985696 | 16.11° C | 82% | 1018.2 hPa | 0 mm | - | 179 W/m² | - |
| 1787985322 | 15.56° C | 84% | 1018 hPa | 0 mm | - | 64 W/m² | - |
| 1787984723 | 15.56° C | 83% | 1017.9 hPa | 0 mm | - | 166 W/m² | - |
| 1787983896 | 15° C | 85% | 1017.9 hPa | 0 mm | - | 205 W/m² | - |
| 1787982923 | 14.44° C | 86% | 1017.9 hPa | 0 mm | - | 64 W/m² | - |
| 1787982096 | 14.44° C | 87% | 1017.9 hPa | 0 mm | - | 38 W/m² | - |
| 1787981723 | 13.89° C | 89% | 1017.8 hPa | 0 mm | - | 32 W/m² | - |
| 1787981122 | 13.33° C | 90% | 1017.8 hPa | 0 mm | - | 26 W/m² | - |
| 1787980295 | 13.33° C | 90% | 1017.8 hPa | 0 mm | - | 19 W/m² | - |
| 1787979922 | 13.33° C | 90% | 1017.8 hPa | 0 mm | - | 13 W/m² | - |
| 1787979323 | 13.33° C | 91% | 1017.7 hPa | 0 mm | - | 6 W/m² | - |
| 1787978496 | 13.33° C | 90% | 1017.6 hPa | 0 mm | - | 6 W/m² | - |
| 1787978122 | 13.89° C | 89% | 1017.5 hPa | 0 mm | - | 0 W/m² | - |
| 1787977522 | 13.89° C | 89% | 1017.5 hPa | 0 mm | - | 0 W/m² | - |
| 1787976696 | 14.44° C | 86% | 1017.2 hPa | 0 mm | - | 0 W/m² | - |
| 1787976323 | 14.44° C | 86% | 1017 hPa | 0 mm | - | 0 W/m² | - |
| 1787975723 | 14.44° C | 85% | 1017 hPa | 0 mm | - | 0 W/m² | - |
| 1787975123 | 15° C | 81% | 1016.9 hPa | 0 mm | - | 0 W/m² | - |
| 1787974522 | 15° C | 79% | 1017.2 hPa | 0 mm | - | 0 W/m² | - |
| 1787973923 | 15.56° C | 77% | 1017.3 hPa | 0 mm | - | 0 W/m² | - |
| 1787973095 | 16.11° C | 74% | 1017.2 hPa | 0 mm | - | 0 W/m² | - |
| 1787972723 | 16.11° C | 72% | 1017.3 hPa | 0 mm | - | 0 W/m² | - |
* Rain latest hour (hover to see other rain measurements)
** Current wind speed in m/s (hover to see current wind gust speed)